sensor_id;sensor_type;location;lat;lon;timestamp;pressure;altitude;pressure_sealevel;temperature;humidity
17855;BME280;9053;53.358;6.382;2023-01-25T00:02:09;103817.97;;;3.51;94.67
17855;BME280;9053;53.358;6.382;2023-01-25T00:04:39;103823.19;;;3.51;94.62
17855;BME280;9053;53.358;6.382;2023-01-25T00:07:09;103809.06;;;3.49;94.55
17855;BME280;9053;53.358;6.382;2023-01-25T00:09:39;103807.72;;;3.53;94.83
17855;BME280;9053;53.358;6.382;2023-01-25T00:12:09;103803.47;;;3.53;94.66
17855;BME280;9053;53.358;6.382;2023-01-25T00:14:41;103793.97;;;3.54;94.79
17855;BME280;9053;53.358;6.382;2023-01-25T00:17:11;103791.34;;;3.54;94.91
17855;BME280;9053;53.358;6.382;2023-01-25T00:19:43;103780.94;;;3.54;94.82
17855;BME280;9053;53.358;6.382;2023-01-25T00:22:13;103788.00;;;3.55;94.77
17855;BME280;9053;53.358;6.382;2023-01-25T00:24:43;103774.97;;;3.55;94.85
17855;BME280;9053;53.358;6.382;2023-01-25T00:27:13;103775.75;;;3.54;94.91
17855;BME280;9053;53.358;6.382;2023-01-25T00:29:46;103765.16;;;3.52;94.87
17855;BME280;9053;53.358;6.382;2023-01-25T00:32:36;103763.59;;;3.45;95.02
17855;BME280;9053;53.358;6.382;2023-01-25T00:35:10;103763.22;;;3.42;94.93
17855;BME280;9053;53.358;6.382;2023-01-25T00:37:42;103753.41;;;3.40;95.00
17855;BME280;9053;53.358;6.382;2023-01-25T00:40:13;103758.47;;;3.38;94.88
17855;BME280;9053;53.358;6.382;2023-01-25T00:42:43;103754.75;;;3.36;94.89
17855;BME280;9053;53.358;6.382;2023-01-25T00:45:15;103744.75;;;3.32;94.90
17855;BME280;9053;53.358;6.382;2023-01-25T00:47:45;103753.34;;;3.31;94.94
17855;BME280;9053;53.358;6.382;2023-01-25T00:50:16;103739.81;;;3.27;94.92
17855;BME280;9053;53.358;6.382;2023-01-25T00:52:46;103751.91;;;3.26;94.86
17855;BME280;9053;53.358;6.382;2023-01-25T00:55:16;103754.50;;;3.26;95.08
17855;BME280;9053;53.358;6.382;2023-01-25T00:57:46;103748.22;;;3.24;94.95
17855;BME280;9053;53.358;6.382;2023-01-25T01:00:19;103750.47;;;3.21;95.08
17855;BME280;9053;53.358;6.382;2023-01-25T01:02:48;103742.69;;;3.21;95.22
17855;BME280;9053;53.358;6.382;2023-01-25T01:05:18;103742.34;;;3.18;95.07
17855;BME280;9053;53.358;6.382;2023-01-25T01:07:48;103737.38;;;3.12;95.12
17855;BME280;9053;53.358;6.382;2023-01-25T01:10:19;103731.09;;;3.10;95.06
17855;BME280;9053;53.358;6.382;2023-01-25T01:12:50;103740.91;;;3.13;95.12
17855;BME280;9053;53.358;6.382;2023-01-25T01:15:22;103728.97;;;3.15;95.40
17855;BME280;9053;53.358;6.382;2023-01-25T01:17:52;103732.69;;;3.17;95.43
17855;BME280;9053;53.358;6.382;2023-01-25T01:20:22;103720.00;;;3.20;95.39
17855;BME280;9053;53.358;6.382;2023-01-25T01:22:54;103731.19;;;3.19;95.58
17855;BME280;9053;53.358;6.382;2023-01-25T01:25:24;103724.88;;;3.17;95.34
17855;BME280;9053;53.358;6.382;2023-01-25T01:27:54;103728.97;;;3.15;95.40
17855;BME280;9053;53.358;6.382;2023-01-25T01:33:49;103730.84;;;3.16;95.72
17855;BME280;9053;53.358;6.382;2023-01-25T01:36:26;103734.53;;;3.18;95.75
17855;BME280;9053;53.358;6.382;2023-01-25T01:43:20;103725.31;;;3.13;95.71
17855;BME280;9053;53.358;6.382;2023-01-25T01:46:09;103726.22;;;3.13;95.69
17855;BME280;9053;53.358;6.382;2023-01-25T01:48:46;103720.84;;;3.12;95.66
17855;BME280;9053;53.358;6.382;2023-01-25T01:51:20;103706.75;;;3.10;95.74
17855;BME280;9053;53.358;6.382;2023-01-25T01:53:55;103715.00;;;3.06;95.86
17855;BME280;9053;53.358;6.382;2023-01-25T01:56:32;103725.78;;;3.01;95.90
17855;BME280;9053;53.358;6.382;2023-01-25T01:59:04;103723.25;;;2.94;95.85
17855;BME280;9053;53.358;6.382;2023-01-25T02:01:38;103720.34;;;2.91;95.62
17855;BME280;9053;53.358;6.382;2023-01-25T02:04:09;103712.19;;;2.88;95.77
17855;BME280;9053;53.358;6.382;2023-01-25T02:06:47;103714.22;;;2.91;95.80
17855;BME280;9053;53.358;6.382;2023-01-25T02:09:21;103703.06;;;2.92;95.96
17855;BME280;9053;53.358;6.382;2023-01-25T02:11:52;103705.06;;;2.94;96.06
17855;BME280;9053;53.358;6.382;2023-01-25T02:14:24;103695.75;;;2.96;96.09
17855;BME280;9053;53.358;6.382;2023-01-25T02:16:58;103697.78;;;2.99;95.99
17855;BME280;9053;53.358;6.382;2023-01-25T02:19:37;103699.78;;;3.01;96.06
17855;BME280;9053;53.358;6.382;2023-01-25T02:22:12;103700.13;;;3.04;96.15
17855;BME280;9053;53.358;6.382;2023-01-25T02:24:49;103696.47;;;3.02;96.32
17855;BME280;9053;53.358;6.382;2023-01-25T02:27:25;103699.78;;;3.01;96.07
17855;BME280;9053;53.358;6.382;2023-01-25T02:29:55;103696.09;;;2.99;96.24
17855;BME280;9053;53.358;6.382;2023-01-25T02:32:25;103694.06;;;2.97;96.06
17855;BME280;9053;53.358;6.382;2023-01-25T02:34:55;103686.13;;;2.95;96.19
17855;BME280;9053;53.358;6.382;2023-01-25T02:37:25;103685.38;;;2.96;96.21
17855;BME280;9053;53.358;6.382;2023-01-25T02:39:55;103680.94;;;2.95;96.29
17855;BME280;9053;53.358;6.382;2023-01-25T02:42:31;103681.44;;;3.00;96.22
17855;BME280;9053;53.358;6.382;2023-01-25T02:45:02;103674.38;;;2.99;96.37
17855;BME280;9053;53.358;6.382;2023-01-25T02:47:39;103677.16;;;3.00;96.39
17855;BME280;9053;53.358;6.382;2023-01-25T02:50:22;103669.03;;;2.97;96.34
17855;BME280;9053;53.358;6.382;2023-01-25T02:52:52;103667.75;;;2.94;96.41
17855;BME280;9053;53.358;6.382;2023-01-25T02:55:22;103672.63;;;2.91;96.29
17855;BME280;9053;53.358;6.382;2023-01-25T02:57:55;103670.03;;;2.91;96.32
17855;BME280;9053;53.358;6.382;2023-01-25T03:03:57;103655.84;;;2.80;96.50
17855;BME280;9053;53.358;6.382;2023-01-25T03:06:43;103658.09;;;2.77;96.51
17855;BME280;9053;53.358;6.382;2023-01-25T03:25:48;103635.78;;;2.63;96.50
17855;BME280;9053;53.358;6.382;2023-01-25T03:28:18;103637.09;;;2.59;96.61
17855;BME280;9053;53.358;6.382;2023-01-25T03:30:51;103636.97;;;2.58;96.52
17855;BME280;9053;53.358;6.382;2023-01-25T03:33:21;103642.75;;;2.55;96.58
17855;BME280;9053;53.358;6.382;2023-01-25T03:35:51;103632.00;;;2.52;96.54
17855;BME280;9053;53.358;6.382;2023-01-25T03:38:21;103629.22;;;2.51;96.60
17855;BME280;9053;53.358;6.382;2023-01-25T03:40:54;103625.19;;;2.46;96.71
17855;BME280;9053;53.358;6.382;2023-01-25T03:43:24;103627.63;;;2.44;96.66
17855;BME280;9053;53.358;6.382;2023-01-25T03:45:55;103625.03;;;2.44;96.63
17855;BME280;9053;53.358;6.382;2023-01-25T03:48:26;103627.63;;;2.44;96.58
17855;BME280;9053;53.358;6.382;2023-01-25T03:50:58;103623.19;;;2.43;96.69
17855;BME280;9053;53.358;6.382;2023-01-25T03:53:29;103622.28;;;2.43;96.64
17855;BME280;9053;53.358;6.382;2023-01-25T03:56:04;103622.41;;;2.44;96.70
17855;BME280;9053;53.358;6.382;2023-01-25T03:58:37;103626.13;;;2.46;96.78
17855;BME280;9053;53.358;6.382;2023-01-25T04:01:08;103633.50;;;2.50;96.92
17855;BME280;9053;53.358;6.382;2023-01-25T04:03:38;103620.09;;;2.54;96.97
17855;BME280;9053;53.358;6.382;2023-01-25T04:06:08;103616.75;;;2.55;97.02
17855;BME280;9053;53.358;6.382;2023-01-25T04:08:37;103615.25;;;2.57;97.11
17855;BME280;9053;53.358;6.382;2023-01-25T04:11:10;103613.56;;;2.58;97.04
17855;BME280;9053;53.358;6.382;2023-01-25T04:13:40;103598.56;;;2.55;97.27
17855;BME280;9053;53.358;6.382;2023-01-25T04:16:09;103591.34;;;2.53;97.10
17855;BME280;9053;53.358;6.382;2023-01-25T04:18:39;103579.69;;;2.49;97.20
17855;BME280;9053;53.358;6.382;2023-01-25T04:21:09;103581.56;;;2.50;97.28
17855;BME280;9053;53.358;6.382;2023-01-25T04:23:39;103580.63;;;2.50;97.21
17855;BME280;9053;53.358;6.382;2023-01-25T04:26:12;103579.09;;;2.52;97.37
17855;BME280;9053;53.358;6.382;2023-01-25T04:28:42;103577.59;;;2.54;97.24
17855;BME280;9053;53.358;6.382;2023-01-25T04:31:12;103575.91;;;2.54;97.36
17855;BME280;9053;53.358;6.382;2023-01-25T04:33:42;103569.47;;;2.51;97.38
17855;BME280;9053;53.358;6.382;2023-01-25T04:36:12;103568.22;;;2.47;97.33
17855;BME280;9053;53.358;6.382;2023-01-25T04:38:41;103571.06;;;2.42;97.53
17855;BME280;9053;53.358;6.382;2023-01-25T04:41:14;103572.72;;;2.41;97.49
17855;BME280;9053;53.358;6.382;2023-01-25T04:43:44;103573.50;;;2.40;97.50
17855;BME280;9053;53.358;6.382;2023-01-25T05:09:29;103576.69;;;2.37;97.94
17855;BME280;9053;53.358;6.382;2023-01-25T05:11:59;103578.19;;;2.35;98.07
17855;BME280;9053;53.358;6.382;2023-01-25T05:14:28;103573.38;;;2.31;98.07
17855;BME280;9053;53.358;6.382;2023-01-25T05:16:59;103567.88;;;2.28;98.05
17855;BME280;9053;53.358;6.382;2023-01-25T05:19:29;103572.53;;;2.24;98.11
17855;BME280;9053;53.358;6.382;2023-01-25T05:22:00;103580.50;;;2.25;98.24
17855;BME280;9053;53.358;6.382;2023-01-25T05:24:36;103570.28;;;2.27;98.32
17855;BME280;9053;53.358;6.382;2023-01-25T05:27:08;103576.56;;;2.29;98.17
17855;BME280;9053;53.358;6.382;2023-01-25T05:29:41;103579.53;;;2.32;98.31
17855;BME280;9053;53.358;6.382;2023-01-25T05:32:17;103567.28;;;2.31;98.35
17855;BME280;9053;53.358;6.382;2023-01-25T05:34:48;103573.75;;;2.34;98.35
17855;BME280;9053;53.358;6.382;2023-01-25T05:37:19;103572.81;;;2.34;98.37
17855;BME280;9053;53.358;6.382;2023-01-25T05:39:52;103565.44;;;2.30;98.51
17855;BME280;9053;53.358;6.382;2023-01-25T05:42:23;103563.06;;;2.24;98.57
17855;BME280;9053;53.358;6.382;2023-01-25T05:44:53;103562.41;;;2.18;98.60
17855;BME280;9053;53.358;6.382;2023-01-25T05:47:23;103566.16;;;2.13;98.55
17855;BME280;9053;53.358;6.382;2023-01-25T05:50:03;103570.09;;;2.09;98.48
17855;BME280;9053;53.358;6.382;2023-01-25T05:52:36;103571.59;;;2.07;98.59
17855;BME280;9053;53.358;6.382;2023-01-25T05:55:10;103570.50;;;2.05;98.73
17855;BME280;9053;53.358;6.382;2023-01-25T05:57:44;103560.69;;;2.03;98.65
17855;BME280;9053;53.358;6.382;2023-01-25T06:10:30;103550.19;;;1.94;98.81
17855;BME280;9053;53.358;6.382;2023-01-25T06:15:38;103552.06;;;1.95;98.88
17855;BME280;9053;53.358;6.382;2023-01-25T06:16:54;103539.25;;;1.97;99.00
17855;BME280;9053;53.358;6.382;2023-01-25T06:19:24;103540.31;;;1.99;99.00
17855;BME280;9053;53.358;6.382;2023-01-25T06:21:57;103535.00;;;1.97;99.10
17855;BME280;9053;53.358;6.382;2023-01-25T06:24:27;103534.22;;;1.98;99.22
17855;BME280;9053;53.358;6.382;2023-01-25T06:27:03;103540.91;;;1.96;99.17
17855;BME280;9053;53.358;6.382;2023-01-25T06:29:33;103535.38;;;1.93;99.20
17855;BME280;9053;53.358;6.382;2023-01-25T06:32:03;103534.47;;;1.92;99.24
17855;BME280;9053;53.358;6.382;2023-01-25T06:34:37;103537.66;;;1.90;99.27
17855;BME280;9053;53.358;6.382;2023-01-25T06:37:07;103539.91;;;1.87;99.35
17855;BME280;9053;53.358;6.382;2023-01-25T06:39:37;103529.16;;;1.84;99.29
17855;BME280;9053;53.358;6.382;2023-01-25T06:42:10;103532.19;;;1.80;99.36
17855;BME280;9053;53.358;6.382;2023-01-25T06:44:40;103527.72;;;1.79;99.44
17855;BME280;9053;53.358;6.382;2023-01-25T06:47:10;103533.28;;;1.82;99.43
17855;BME280;9053;53.358;6.382;2023-01-25T06:49:41;103533.09;;;1.80;99.47
17855;BME280;9053;53.358;6.382;2023-01-25T06:52:12;103534.91;;;1.81;99.57
17855;BME280;9053;53.358;6.382;2023-01-25T06:55:06;103526.81;;;1.78;99.56
17855;BME280;9053;53.358;6.382;2023-01-25T06:57:42;103531.84;;;1.77;99.69
17855;BME280;9053;53.358;6.382;2023-01-25T07:00:13;103529.97;;;1.76;99.55
17855;BME280;9053;53.358;6.382;2023-01-25T07:02:43;103532.56;;;1.76;99.69
17855;BME280;9053;53.358;6.382;2023-01-25T07:05:13;103538.69;;;1.76;99.64
17855;BME280;9053;53.358;6.382;2023-01-25T07:07:46;103537.38;;;1.80;99.79
17855;BME280;9053;53.358;6.382;2023-01-25T07:10:16;103532.56;;;1.76;99.84
17855;BME280;9053;53.358;6.382;2023-01-25T07:12:49;103533.66;;;1.78;99.93
17855;BME280;9053;53.358;6.382;2023-01-25T07:15:19;103539.63;;;1.77;100.00
17855;BME280;9053;53.358;6.382;2023-01-25T07:17:49;103541.13;;;1.75;99.90
17855;BME280;9053;53.358;6.382;2023-01-25T07:20:19;103548.91;;;1.75;100.00
17855;BME280;9053;53.358;6.382;2023-01-25T07:22:49;103544.06;;;1.78;100.00
17855;BME280;9053;53.358;6.382;2023-01-25T07:25:19;103541.78;;;1.81;100.00
17855;BME280;9053;53.358;6.382;2023-01-25T07:27:52;103532.91;;;1.79;100.00
17855;BME280;9053;53.358;6.382;2023-01-25T07:30:22;103532.00;;;1.78;100.00
17855;BME280;9053;53.358;6.382;2023-01-25T07:32:51;103531.06;;;1.78;100.00
17855;BME280;9053;53.358;6.382;2023-01-25T07:35:22;103518.09;;;1.78;100.00
17855;BME280;9053;53.358;6.382;2023-01-25T07:37:52;103523.28;;;1.78;100.00
17855;BME280;9053;53.358;6.382;2023-01-25T07:40:21;103510.84;;;1.82;100.00
17855;BME280;9053;53.358;6.382;2023-01-25T07:42:55;103515.59;;;1.86;100.00
17855;BME280;9053;53.358;6.382;2023-01-25T07:45:25;103514.28;;;1.90;100.00
17855;BME280;9053;53.358;6.382;2023-01-25T07:47:57;103517.03;;;1.91;100.00
17855;BME280;9053;53.358;6.382;2023-01-25T07:50:27;103510.94;;;1.91;100.00
17855;BME280;9053;53.358;6.382;2023-01-25T07:52:57;103497.94;;;1.91;100.00
17855;BME280;9053;53.358;6.382;2023-01-25T07:55:30;103495.34;;;1.91;100.00
17855;BME280;9053;53.358;6.382;2023-01-25T07:58:02;103489.44;;;1.92;100.00
17855;BME280;9053;53.358;6.382;2023-01-25T08:00:32;103480.69;;;1.91;100.00
17855;BME280;9053;53.358;6.382;2023-01-25T08:03:02;103486.84;;;1.92;100.00
17855;BME280;9053;53.358;6.382;2023-01-25T08:05:33;103474.78;;;1.92;100.00
17855;BME280;9053;53.358;6.382;2023-01-25T08:08:05;103468.47;;;1.90;100.00
17855;BME280;9053;53.358;6.382;2023-01-25T08:10:35;103473.34;;;1.87;100.00
17855;BME280;9053;53.358;6.382;2023-01-25T08:13:07;103477.63;;;1.87;100.00
17855;BME280;9053;53.358;6.382;2023-01-25T08:15:37;103470.56;;;1.86;100.00
17855;BME280;9053;53.358;6.382;2023-01-25T08:18:07;103466.13;;;1.85;100.00
17855;BME280;9053;53.358;6.382;2023-01-25T08:20:36;103462.78;;;1.86;100.00
17855;BME280;9053;53.358;6.382;2023-01-25T08:23:06;103457.78;;;1.87;100.00
17855;BME280;9053;53.358;6.382;2023-01-25T08:25:36;103455.50;;;1.90;100.00
17855;BME280;9053;53.358;6.382;2023-01-25T08:28:08;103452.91;;;1.90;100.00
17855;BME280;9053;53.358;6.382;2023-01-25T08:30:38;103466.06;;;1.92;100.00
17855;BME280;9053;53.358;6.382;2023-01-25T08:33:22;103463.47;;;1.92;100.00
17855;BME280;9053;53.358;6.382;2023-01-25T08:35:55;103463.47;;;1.92;100.00
17855;BME280;9053;53.358;6.382;2023-01-25T08:38:25;103454.41;;;1.88;100.00
17855;BME280;9053;53.358;6.382;2023-01-25T08:40:55;103460.75;;;1.83;100.00
17855;BME280;9053;53.358;6.382;2023-01-25T08:43:35;103450.22;;;1.82;100.00
17855;BME280;9053;53.358;6.382;2023-01-25T08:46:05;103452.47;;;1.79;100.00
17855;BME280;9053;53.358;6.382;2023-01-25T08:48:36;103454.16;;;1.78;100.00
17855;BME280;9053;53.358;6.382;2023-01-25T08:51:07;103458.03;;;1.82;100.00
17855;BME280;9053;53.358;6.382;2023-01-25T08:53:37;103449.66;;;1.84;100.00
17855;BME280;9053;53.358;6.382;2023-01-25T08:56:09;103443.69;;;1.85;100.00
17855;BME280;9053;53.358;6.382;2023-01-25T08:58:43;103435.16;;;1.86;100.00
17855;BME280;9053;53.358;6.382;2023-01-25T09:01:14;103438.09;;;1.89;100.00
17855;BME280;9053;53.358;6.382;2023-01-25T09:03:47;103433.81;;;1.90;100.00
17855;BME280;9053;53.358;6.382;2023-01-25T09:06:17;103428.97;;;1.93;100.00
17855;BME280;9053;53.358;6.382;2023-01-25T09:08:48;103433.91;;;1.99;100.00
17855;BME280;9053;53.358;6.382;2023-01-25T09:11:19;103423.50;;;1.99;100.00
17855;BME280;9053;53.358;6.382;2023-01-25T09:13:52;103412.53;;;2.01;100.00
17855;BME280;9053;53.358;6.382;2023-01-25T09:16:23;103410.31;;;2.04;100.00
17855;BME280;9053;53.358;6.382;2023-01-25T09:18:57;103413.06;;;2.06;100.00
17855;BME280;9053;53.358;6.382;2023-01-25T09:21:28;103409.88;;;2.08;100.00
17855;BME280;9053;53.358;6.382;2023-01-25T09:23:58;103408.38;;;2.10;100.00
17855;BME280;9053;53.358;6.382;2023-01-25T09:26:34;103404.28;;;2.12;100.00
17855;BME280;9053;53.358;6.382;2023-01-25T09:29:11;103398.16;;;2.12;100.00
17855;BME280;9053;53.358;6.382;2023-01-25T09:31:41;103400.00;;;2.13;100.00
17855;BME280;9053;53.358;6.382;2023-01-25T09:34:13;103394.63;;;2.11;100.00
17855;BME280;9053;53.358;6.382;2023-01-25T09:36:43;103397.22;;;2.11;100.00
17855;BME280;9053;53.358;6.382;2023-01-25T09:39:13;103390.53;;;2.13;100.00
17855;BME280;9053;53.358;6.382;2023-01-25T09:42:06;103404.59;;;2.15;100.00
17855;BME280;9053;53.358;6.382;2023-01-25T09:44:59;103390.25;;;2.19;100.00
17855;BME280;9053;53.358;6.382;2023-01-25T09:47:38;103393.94;;;2.21;100.00
17855;BME280;9053;53.358;6.382;2023-01-25T09:53:26;103377.19;;;2.26;100.00
17855;BME280;9053;53.358;6.382;2023-01-25T09:56:01;103374.44;;;2.25;100.00
17855;BME280;9053;53.358;6.382;2023-01-25T09:58:34;103373.69;;;2.26;100.00
17855;BME280;9053;53.358;6.382;2023-01-25T10:01:24;103367.38;;;2.24;100.00
17855;BME280;9053;53.358;6.382;2023-01-25T10:04:10;103370.16;;;2.25;100.00
17855;BME280;9053;53.358;6.382;2023-01-25T10:06:43;103369.25;;;2.25;100.00
17855;BME280;9053;53.358;6.382;2023-01-25T10:09:38;103362.53;;;2.27;100.00
17855;BME280;9053;53.358;6.382;2023-01-25T10:12:15;103356.59;;;2.28;100.00
17855;BME280;9053;53.358;6.382;2023-01-25T10:14:48;103356.31;;;2.33;100.00
17855;BME280;9053;53.358;6.382;2023-01-25T10:17:26;103349.63;;;2.35;100.00
17855;BME280;9053;53.358;6.382;2023-01-25T10:20:16;103337.53;;;2.36;100.00
17855;BME280;9053;53.358;6.382;2023-01-25T10:23:02;103329.00;;;2.37;100.00
17855;BME280;9053;53.358;6.382;2023-01-25T10:25:39;103311.88;;;2.39;100.00
17855;BME280;9053;53.358;6.382;2023-01-25T10:28:22;103312.84;;;2.40;100.00
17855;BME280;9053;53.358;6.382;2023-01-25T10:30:59;103309.78;;;2.44;100.00
17855;BME280;9053;53.358;6.382;2023-01-25T10:33:38;103297.88;;;2.46;100.00
17855;BME280;9053;53.358;6.382;2023-01-25T10:36:12;103293.47;;;2.45;100.00
17855;BME280;9053;53.358;6.382;2023-01-25T10:38:44;103281.06;;;2.42;100.00
17855;BME280;9053;53.358;6.382;2023-01-25T10:41:19;103275.09;;;2.43;100.00
17855;BME280;9053;53.358;6.382;2023-01-25T10:43:50;103270.69;;;2.42;100.00
17855;BME280;9053;53.358;6.382;2023-01-25T10:46:47;103269.13;;;2.44;100.00
17855;BME280;9053;53.358;6.382;2023-01-25T10:49:25;103267.31;;;2.43;100.00
17855;BME280;9053;53.358;6.382;2023-01-25T10:52:11;103267.31;;;2.43;100.00
17855;BME280;9053;53.358;6.382;2023-01-25T10:54:41;103261.19;;;2.43;100.00
17855;BME280;9053;53.358;6.382;2023-01-25T10:57:14;103255.09;;;2.42;100.00
17855;BME280;9053;53.358;6.382;2023-01-25T10:59:48;103262.13;;;2.43;100.00
17855;BME280;9053;53.358;6.382;2023-01-25T11:02:38;103260.44;;;2.44;100.00
17855;BME280;9053;53.358;6.382;2023-01-25T11:05:33;103245.63;;;2.43;100.00
17855;BME280;9053;53.358;6.382;2023-01-25T11:08:21;103241.34;;;2.43;100.00
17855;BME280;9053;53.358;6.382;2023-01-25T11:10:52;103223.31;;;2.45;100.00
17855;BME280;9053;53.358;6.382;2023-01-25T11:13:24;103224.25;;;2.45;100.00
17855;BME280;9053;53.358;6.382;2023-01-25T11:16:13;103220.13;;;2.47;100.00
17855;BME280;9053;53.358;6.382;2023-01-25T11:18:49;103213.84;;;2.45;100.00
17855;BME280;9053;53.358;6.382;2023-01-25T11:21:23;103214.75;;;2.46;100.00
17855;BME280;9053;53.358;6.382;2023-01-25T11:24:01;103209.75;;;2.47;100.00
17855;BME280;9053;53.358;6.382;2023-01-25T11:26:33;103203.00;;;2.49;100.00
17855;BME280;9053;53.358;6.382;2023-01-25T11:29:11;103189.28;;;2.50;100.00
17855;BME280;9053;53.358;6.382;2023-01-25T11:31:43;103191.56;;;2.56;100.00
17855;BME280;9053;53.358;6.382;2023-01-25T11:34:16;103179.66;;;2.58;100.00
17855;BME280;9053;53.358;6.382;2023-01-25T11:37:03;103173.69;;;2.59;100.00
17855;BME280;9053;53.358;6.382;2023-01-25T11:39:44;103177.56;;;2.63;100.00
17855;BME280;9053;53.358;6.382;2023-01-25T11:42:30;103168.38;;;2.66;100.00
17855;BME280;9053;53.358;6.382;2023-01-25T11:45:39;103162.56;;;2.69;100.00
17855;BME280;9053;53.358;6.382;2023-01-25T11:48:27;103154.78;;;2.69;100.00
17855;BME280;9053;53.358;6.382;2023-01-25T11:51:13;103143.66;;;2.70;100.00
17855;BME280;9053;53.358;6.382;2023-01-25T11:53:59;103126.19;;;2.69;100.00
17855;BME280;9053;53.358;6.382;2023-01-25T11:56:45;103125.00;;;2.74;100.00
17855;BME280;9053;53.358;6.382;2023-01-25T11:59:28;103119.03;;;2.75;100.00
17855;BME280;9053;53.358;6.382;2023-01-25T12:02:14;103109.88;;;2.78;100.00
17855;BME280;9053;53.358;6.382;2023-01-25T12:05:15;103104.53;;;2.86;100.00
17855;BME280;9053;53.358;6.382;2023-01-25T12:07:52;103098.72;;;2.88;100.00
17855;BME280;9053;53.358;6.382;2023-01-25T12:10:37;103099.31;;;2.94;100.00
17855;BME280;9053;53.358;6.382;2023-01-25T12:13:15;103087.28;;;2.95;100.00
17855;BME280;9053;53.358;6.382;2023-01-25T12:16:01;103083.72;;;2.94;100.00
17855;BME280;9053;53.358;6.382;2023-01-25T12:18:50;103080.38;;;2.95;100.00
17855;BME280;9053;53.358;6.382;2023-01-25T12:21:34;103071.81;;;2.96;100.00
17855;BME280;9053;53.358;6.382;2023-01-25T12:24:22;103064.31;;;2.99;100.00
17855;BME280;9053;53.358;6.382;2023-01-25T12:27:08;103062.03;;;3.02;100.00
17855;BME280;9053;53.358;6.382;2023-01-25T12:29:43;103056.97;;;3.04;100.00
17855;BME280;9053;53.358;6.382;2023-01-25T12:32:18;103043.53;;;3.08;100.00
17855;BME280;9053;53.358;6.382;2023-01-25T12:35:09;103043.03;;;3.12;100.00
17855;BME280;9053;53.358;6.382;2023-01-25T12:37:44;103033.59;;;3.13;100.00
17855;BME280;9053;53.358;6.382;2023-01-25T12:40:17;103034.50;;;3.13;100.00
17855;BME280;9053;53.358;6.382;2023-01-25T12:42:55;103033.59;;;3.13;100.00
17855;BME280;9053;53.358;6.382;2023-01-25T12:45:30;103031.13;;;3.14;100.00
17855;BME280;9053;53.358;6.382;2023-01-25T12:48:10;103017.22;;;3.14;100.00
17855;BME280;9053;53.358;6.382;2023-01-25T12:50:51;103017.97;;;3.13;100.00
17855;BME280;9053;53.358;6.382;2023-01-25T12:53:25;103004.81;;;3.11;100.00
17855;BME280;9053;53.358;6.382;2023-01-25T12:55:56;103004.19;;;3.14;100.00
17855;BME280;9053;53.358;6.382;2023-01-25T12:58:33;102998.38;;;3.16;100.00
17855;BME280;9053;53.358;6.382;2023-01-25T13:01:11;103003.59;;;3.16;100.00
17855;BME280;9053;53.358;6.382;2023-01-25T13:04:03;102996.69;;;3.17;100.00
17855;BME280;9053;53.358;6.382;2023-01-25T13:06:44;102986.47;;;3.18;100.00
17855;BME280;9053;53.358;6.382;2023-01-25T13:09:22;102983.25;;;3.21;100.00
17855;BME280;9053;53.358;6.382;2023-01-25T13:11:55;102986.75;;;3.21;100.00
17855;BME280;9053;53.358;6.382;2023-01-25T13:14:35;102982.75;;;3.25;100.00
17855;BME280;9053;53.358;6.382;2023-01-25T13:17:20;102974.81;;;3.23;100.00
17855;BME280;9053;53.358;6.382;2023-01-25T13:19:51;102972.34;;;3.25;100.00
17855;BME280;9053;53.358;6.382;2023-01-25T13:22:54;102969.75;;;3.25;100.00
17855;BME280;9053;53.358;6.382;2023-01-25T13:25:26;102966.09;;;3.23;100.00
17855;BME280;9053;53.358;6.382;2023-01-25T13:30:58;102957.81;;;3.27;100.00
17855;BME280;9053;53.358;6.382;2023-01-25T13:33:32;102956.16;;;3.28;100.00
17855;BME280;9053;53.358;6.382;2023-01-25T13:36:36;102947.88;;;3.32;100.00
17855;BME280;9053;53.358;6.382;2023-01-25T13:42:19;102929.66;;;3.32;100.00
17855;BME280;9053;53.358;6.382;2023-01-25T13:44:51;102931.50;;;3.33;100.00
17855;BME280;9053;53.358;6.382;2023-01-25T13:47:28;102937.91;;;3.36;100.00
17855;BME280;9053;53.358;6.382;2023-01-25T13:50:08;102926.09;;;3.40;100.00
17855;BME280;9053;53.358;6.382;2023-01-25T13:52:57;102911.56;;;3.42;100.00
17855;BME280;9053;53.358;6.382;2023-01-25T13:55:36;102919.38;;;3.42;100.00
17855;BME280;9053;53.358;6.382;2023-01-25T13:58:13;102918.47;;;3.41;100.00
17855;BME280;9053;53.358;6.382;2023-01-25T14:00:50;102923.66;;;3.41;100.00
17855;BME280;9053;53.358;6.382;2023-01-25T14:03:26;102920.28;;;3.42;100.00
17855;BME280;9053;53.358;6.382;2023-01-25T14:05:58;102912.47;;;3.42;100.00
17855;BME280;9053;53.358;6.382;2023-01-25T14:08:29;102905.59;;;3.43;100.00
17855;BME280;9053;53.358;6.382;2023-01-25T14:10:59;102902.22;;;3.44;100.00
17855;BME280;9053;53.358;6.382;2023-01-25T14:13:30;102890.13;;;3.44;100.00
17855;BME280;9053;53.358;6.382;2023-01-25T14:16:08;102881.56;;;3.45;100.00
17855;BME280;9053;53.358;6.382;2023-01-25T14:18:41;102873.88;;;3.47;100.00
17855;BME280;9053;53.358;6.382;2023-01-25T14:21:14;102880.16;;;3.49;100.00
17855;BME280;9053;53.358;6.382;2023-01-25T14:23:45;102870.81;;;3.51;100.00
17855;BME280;9053;53.358;6.382;2023-01-25T14:26:20;102867.31;;;3.51;100.00
17855;BME280;9053;53.358;6.382;2023-01-25T14:28:52;102864.56;;;3.49;100.00
17855;BME280;9053;53.358;6.382;2023-01-25T14:31:31;102854.00;;;3.47;100.00
17855;BME280;9053;53.358;6.382;2023-01-25T14:34:05;102844.38;;;3.46;100.00
17855;BME280;9053;53.358;6.382;2023-01-25T14:36:45;102842.38;;;3.44;100.00
17855;BME280;9053;53.358;6.382;2023-01-25T14:39:23;102857.84;;;3.42;100.00
17855;BME280;9053;53.358;6.382;2023-01-25T14:41:55;102859.53;;;3.42;100.00
17855;BME280;9053;53.358;6.382;2023-01-25T14:44:28;102862.13;;;3.42;100.00
17855;BME280;9053;53.358;6.382;2023-01-25T14:47:20;102864.91;;;3.43;100.00
17855;BME280;9053;53.358;6.382;2023-01-25T14:49:54;102862.13;;;3.42;100.00
17855;BME280;9053;53.358;6.382;2023-01-25T14:52:26;102867.50;;;3.43;100.00
17855;BME280;9053;53.358;6.382;2023-01-25T14:54:58;102871.91;;;3.44;100.00
17855;BME280;9053;53.358;6.382;2023-01-25T14:57:31;102877.28;;;3.46;100.00